createdAt,value
2023-04-25T00:00:02.435Z,26.4
2023-04-25T00:10:03.242Z,26.8
2023-04-25T00:20:03.166Z,27.2
2023-04-25T00:30:07.954Z,27.6
2023-04-25T00:40:02.879Z,28
2023-04-25T00:50:02.638Z,28.2
2023-04-25T01:00:02.415Z,28.4
2023-04-25T01:10:03.276Z,28.9
2023-04-25T01:20:03.193Z,29.1
2023-04-25T01:30:03.010Z,29.4
2023-04-25T01:40:02.808Z,29.6
2023-04-25T01:50:02.618Z,29.8
2023-04-25T02:00:02.270Z,29.8
2023-04-25T02:10:03.041Z,29.9
2023-04-25T02:20:02.889Z,30
2023-04-25T02:30:02.662Z,30.1
2023-04-25T02:40:02.335Z,30.2
2023-04-25T02:50:02.879Z,30.3
2023-04-25T03:00:02.632Z,30.4
2023-04-25T03:10:02.519Z,30.4
2023-04-25T03:20:02.511Z,30.6
2023-04-25T03:30:02.365Z,30.6
2023-04-25T03:40:03.675Z,30.5
2023-04-25T03:50:02.721Z,30.8
2023-04-25T04:00:02.408Z,30.8
2023-04-25T04:10:03.059Z,30.9
2023-04-25T04:20:02.948Z,30.9
2023-04-25T04:30:02.650Z,30.9
2023-04-25T04:40:02.485Z,31
2023-04-25T04:50:03.296Z,31.1
2023-04-25T05:00:02.945Z,31.2
2023-04-25T05:10:02.860Z,31.2
2023-04-25T05:20:02.869Z,31.2
2023-04-25T05:30:02.622Z,31.2
2023-04-25T05:40:02.279Z,31.3
2023-04-25T05:50:03.083Z,31.1
2023-04-25T06:00:03.159Z,31.2
2023-04-25T06:10:02.897Z,31.1
2023-04-25T06:20:03.635Z,31.1
2023-04-25T06:30:02.304Z,30.9
2023-04-25T06:40:03.236Z,30.9
2023-04-25T06:50:02.970Z,31.2
2023-04-25T07:00:02.906Z,31.1
2023-04-25T07:10:02.615Z,31
2023-04-25T07:20:02.390Z,31
2023-04-25T07:30:03.041Z,30.9
2023-04-25T07:40:02.674Z,31.1
2023-04-25T07:50:02.422Z,31.2
2023-04-25T08:00:03.331Z,31.2
2023-04-25T08:10:03.209Z,31.1
2023-04-25T08:20:03.308Z,31.2
2023-04-25T08:30:03.111Z,31.1
2023-04-25T08:40:02.893Z,31.1
2023-04-25T08:50:02.715Z,31.1
2023-04-25T09:00:02.493Z,31.2
2023-04-25T09:10:03.485Z,31.1
2023-04-25T09:20:02.514Z,31
2023-04-25T09:30:03.223Z,31.1
2023-04-25T09:40:02.985Z,31.1
2023-04-25T09:50:02.925Z,30.9
2023-04-25T10:00:02.974Z,30.9
2023-04-25T10:10:02.677Z,30.8
2023-04-25T10:20:02.612Z,30.8
2023-04-25T10:30:02.627Z,30.9
2023-04-25T10:40:02.443Z,30.6
2023-04-25T10:50:03.096Z,30.7
2023-04-25T11:00:03.048Z,30.8
2023-04-25T11:10:02.814Z,30.8
2023-04-25T11:20:02.811Z,30.8
2023-04-25T11:30:02.954Z,30.9
2023-04-25T11:40:02.830Z,30.8
2023-04-25T11:50:02.541Z,30.7
2023-04-25T12:00:03.399Z,30.8
2023-04-25T12:10:03.374Z,30.8
2023-04-25T12:20:02.376Z,30.8
2023-04-25T12:30:03.213Z,30.6
2023-04-25T12:40:03.134Z,26.8
2023-04-25T12:50:02.899Z,27.2
2023-04-25T13:00:02.713Z,27.2
2023-04-25T13:10:02.622Z,27
2023-04-25T13:20:02.644Z,27.3
2023-04-25T13:30:02.307Z,27.1
2023-04-25T13:40:04.645Z,27.2
2023-04-25T13:50:02.732Z,27
2023-04-25T14:00:02.514Z,26.7
2023-04-25T14:10:02.263Z,26.7
2023-04-25T14:20:03.322Z,26.8
2023-04-25T14:30:03.131Z,26.6
2023-04-25T14:40:02.952Z,26.8
2023-04-25T14:50:02.820Z,26.8
2023-04-25T15:00:02.693Z,26.9
2023-04-25T15:10:02.394Z,26.9
2023-04-25T15:20:03.247Z,27.1
2023-04-25T15:30:03.008Z,26.8
2023-04-25T15:40:02.713Z,26.6
2023-04-25T15:50:02.326Z,26.4
2023-04-25T16:00:03.005Z,26.5
2023-04-25T16:10:02.690Z,26.6
2023-04-25T16:20:02.550Z,26.6
2023-04-25T16:30:03.324Z,26.6
2023-04-25T16:40:03.080Z,26.7
2023-04-25T16:50:02.754Z,26.9
2023-04-25T17:00:02.628Z,26.8
2023-04-25T17:10:02.296Z,26.8
2023-04-25T17:20:03.259Z,26.8
2023-04-25T17:30:03.227Z,26.6
2023-04-25T17:40:03.226Z,26.7
2023-04-25T17:50:03.006Z,26.8
2023-04-25T18:00:05.226Z,26.8
2023-04-25T18:10:02.476Z,26.8
2023-04-25T18:20:02.405Z,26.5
2023-04-25T18:30:03.152Z,26.4
2023-04-25T18:40:02.817Z,26.3
2023-04-25T18:50:02.564Z,26.3
2023-04-25T19:00:02.478Z,26.4
2023-04-25T19:10:02.807Z,26.4
2023-04-25T19:20:02.882Z,26.4
2023-04-25T19:30:02.626Z,26.4
2023-04-25T19:40:02.431Z,26.8
2023-04-25T19:50:03.184Z,27.8
2023-04-25T20:00:03.099Z,28.1
2023-04-25T20:10:02.870Z,28.3
2023-04-25T20:20:02.777Z,28.3
2023-04-25T20:30:02.876Z,28.3
2023-04-25T20:40:02.592Z,28.3
2023-04-25T20:50:02.519Z,28.4
2023-04-25T21:00:03.259Z,28.4
2023-04-25T21:10:02.872Z,28.3
2023-04-25T21:20:02.754Z,28.3
2023-04-25T21:30:02.510Z,28.3
2023-04-25T21:40:03.256Z,28.3
2023-04-25T21:50:02.972Z,28.2
2023-04-25T22:00:02.757Z,28.3
2023-04-25T22:10:02.510Z,28.3
2023-04-25T22:20:02.414Z,28.3
2023-04-25T22:30:03.125Z,28.3
2023-04-25T22:40:02.968Z,28.2
2023-04-25T22:50:02.722Z,28.1
2023-04-25T23:00:02.563Z,28
2023-04-25T23:10:02.387Z,28.1
2023-04-25T23:20:02.285Z,28.2
2023-04-25T23:30:03.078Z,28.2
2023-04-25T23:40:02.768Z,28.1
2023-04-25T23:50:02.568Z,28.1
